createdAt,value
2022-07-25T00:01:32.883Z,19.60
2022-07-25T00:04:20.504Z,19.60
2022-07-25T00:07:10.812Z,19.70
2022-07-25T00:09:57.890Z,19.70
2022-07-25T00:12:45.551Z,19.70
2022-07-25T00:15:32.761Z,19.60
2022-07-25T00:18:20.140Z,19.40
2022-07-25T00:21:07.743Z,19.20
2022-07-25T00:23:56.108Z,19.00
2022-07-25T00:26:43.963Z,18.80
2022-07-25T00:29:31.391Z,18.90
2022-07-25T00:32:18.459Z,18.80
2022-07-25T00:35:06.452Z,18.80
2022-07-25T00:37:53.541Z,18.80
2022-07-25T00:40:42.183Z,18.70
2022-07-25T00:43:29.503Z,18.70
2022-07-25T00:46:18.851Z,18.70
2022-07-25T00:49:06.273Z,18.70
2022-07-25T00:51:55.054Z,18.70
2022-07-25T00:54:42.545Z,18.70
2022-07-25T00:57:33.829Z,18.70
2022-07-25T01:00:21.274Z,18.70
2022-07-25T01:03:08.581Z,18.60
2022-07-25T01:05:56.025Z,18.50
2022-07-25T01:08:43.825Z,18.30
2022-07-25T01:11:31.804Z,18.20
2022-07-25T01:14:20.922Z,18.00
2022-07-25T01:17:08.332Z,17.90
2022-07-25T01:19:55.675Z,18.10
2022-07-25T01:22:44.499Z,18.30
2022-07-25T01:25:31.802Z,18.50
2022-07-25T01:28:19.251Z,18.50
2022-07-25T01:31:07.523Z,18.50
2022-07-25T01:33:54.797Z,18.50
2022-07-25T01:36:42.252Z,18.20
2022-07-25T01:39:31.181Z,18.20
2022-07-25T01:42:18.131Z,17.90
2022-07-25T01:45:06.138Z,17.90
2022-07-25T01:47:53.627Z,17.90
2022-07-25T01:50:40.961Z,17.70
2022-07-25T01:53:28.338Z,17.60
2022-07-25T01:56:17.590Z,17.60
2022-07-25T01:59:08.336Z,17.60
2022-07-25T02:01:55.776Z,17.60
2022-07-25T02:04:43.213Z,17.70
2022-07-25T02:07:30.288Z,17.70
2022-07-25T02:10:17.458Z,17.80
2022-07-25T02:13:06.066Z,17.90
2022-07-25T02:15:53.171Z,18.00
2022-07-25T02:18:40.646Z,18.00
2022-07-25T02:21:27.923Z,18.00
2022-07-25T02:24:14.977Z,18.20
2022-07-25T02:27:02.403Z,18.30
2022-07-25T02:29:51.102Z,18.50
2022-07-25T02:32:38.209Z,18.50
2022-07-25T02:35:25.578Z,18.60
2022-07-25T02:38:19.412Z,18.60
2022-07-25T02:41:06.956Z,18.60
2022-07-25T02:43:54.110Z,18.60
2022-07-25T02:46:42.864Z,18.60
2022-07-25T02:49:30.104Z,18.70
2022-07-25T02:52:17.507Z,18.70
2022-07-25T02:55:09.469Z,18.70
2022-07-25T02:57:57.249Z,18.60
2022-07-25T03:00:44.472Z,18.60
2022-07-25T03:03:33.135Z,18.60
2022-07-25T03:06:20.952Z,18.60
2022-07-25T03:09:08.298Z,18.50
2022-07-25T03:11:55.839Z,18.50
2022-07-25T03:14:43.212Z,18.50
2022-07-25T03:17:30.880Z,18.50
2022-07-25T03:20:19.684Z,18.50
2022-07-25T03:23:07.061Z,18.50
2022-07-25T03:25:54.484Z,18.40
2022-07-25T03:28:41.760Z,18.40
2022-07-25T03:31:29.518Z,18.40
2022-07-25T03:34:16.502Z,18.40
2022-07-25T03:37:05.712Z,18.40
2022-07-25T03:39:53.167Z,18.40
2022-07-25T03:42:40.411Z,18.40
2022-07-25T03:45:27.787Z,18.40
2022-07-25T03:48:15.080Z,18.40
2022-07-25T03:51:06.571Z,18.40
2022-07-25T03:54:05.268Z,18.50
2022-07-25T03:56:53.029Z,18.40
2022-07-25T03:59:40.266Z,18.50
2022-07-25T04:02:27.634Z,18.50
2022-07-25T04:05:14.920Z,18.50
2022-07-25T04:08:02.367Z,18.40
2022-07-25T04:10:51.197Z,18.50
2022-07-25T04:13:38.451Z,18.50
2022-07-25T04:16:27.823Z,18.60
2022-07-25T04:19:15.500Z,18.60
2022-07-25T04:22:04.404Z,18.60
2022-07-25T04:24:51.910Z,18.60
2022-07-25T04:27:40.513Z,18.60
2022-07-25T04:30:27.909Z,18.70
2022-07-25T04:33:15.636Z,18.70
2022-07-25T04:36:02.674Z,18.70
2022-07-25T04:38:49.971Z,18.80
2022-07-25T04:41:37.418Z,18.80
2022-07-25T04:44:26.339Z,18.90
2022-07-25T04:47:13.477Z,18.90
2022-07-25T04:50:01.167Z,19.00
2022-07-25T04:52:48.273Z,19.00
2022-07-25T04:55:36.276Z,19.10
2022-07-25T04:58:23.556Z,19.10
2022-07-25T05:01:12.360Z,19.10
2022-07-25T05:03:59.707Z,19.30
2022-07-25T05:06:47.020Z,19.30
2022-07-25T05:09:34.443Z,19.40
2022-07-25T05:12:21.757Z,19.50
2022-07-25T05:15:09.867Z,19.60
2022-07-25T05:17:58.520Z,19.70
2022-07-25T05:20:45.587Z,19.80
2022-07-25T05:23:33.051Z,19.90
2022-07-25T05:26:20.560Z,20.10
2022-07-25T05:29:07.735Z,20.20
2022-07-25T05:31:55.107Z,20.40
2022-07-25T05:34:43.851Z,20.60
2022-07-25T05:37:31.051Z,20.70
2022-07-25T05:40:19.365Z,20.90
2022-07-25T05:43:06.686Z,21.10
2022-07-25T05:45:54.304Z,21.20
2022-07-25T05:48:41.911Z,21.30
2022-07-25T05:51:30.683Z,21.50
2022-07-25T05:54:18.271Z,21.70
2022-07-25T05:57:05.647Z,22.00
2022-07-25T05:59:53.318Z,22.30
2022-07-25T06:02:40.707Z,22.70
2022-07-25T06:05:28.170Z,22.90
2022-07-25T06:08:17.209Z,23.10
2022-07-25T06:11:05.932Z,23.50
2022-07-25T06:13:55.440Z,23.70
2022-07-25T06:16:42.897Z,23.60
2022-07-25T06:19:30.337Z,23.90
2022-07-25T06:22:19.545Z,23.90
2022-07-25T06:25:09.123Z,24.30
2022-07-25T06:27:56.061Z,24.60
2022-07-25T06:30:43.650Z,24.80
2022-07-25T06:33:30.947Z,25.00
2022-07-25T06:36:18.302Z,25.00
2022-07-25T06:39:05.741Z,25.10
2022-07-25T06:41:54.622Z,25.20
2022-07-25T06:44:42.145Z,25.10
2022-07-25T06:47:32.894Z,25.30
2022-07-25T06:50:22.652Z,25.40
2022-07-25T06:53:09.748Z,25.80
2022-07-25T06:55:57.249Z,26.20
2022-07-25T06:58:46.176Z,26.60
2022-07-25T07:01:33.159Z,27.10
2022-07-25T07:04:20.366Z,27.20
2022-07-25T07:07:07.784Z,27.40
2022-07-25T07:09:55.142Z,27.40
2022-07-25T07:12:42.548Z,27.70
2022-07-25T07:15:31.353Z,28.20
2022-07-25T07:18:18.495Z,28.10
2022-07-25T07:21:06.686Z,28.20
2022-07-25T07:23:54.893Z,28.40
2022-07-25T07:26:44.147Z,28.50
2022-07-25T07:29:31.575Z,28.30
2022-07-25T07:32:20.237Z,28.90
2022-07-25T07:35:07.939Z,28.60
2022-07-25T07:37:55.402Z,28.60
2022-07-25T07:40:42.878Z,28.50
2022-07-25T07:43:31.856Z,28.30
2022-07-25T07:46:19.517Z,28.60
2022-07-25T07:49:08.576Z,28.90
2022-07-25T07:51:55.970Z,29.30
2022-07-25T07:55:00.844Z,29.70
2022-07-25T07:57:48.383Z,30.00
2022-07-25T08:00:39.201Z,30.00
2022-07-25T08:03:26.267Z,30.10
2022-07-25T08:06:14.867Z,30.10
2022-07-25T08:09:02.256Z,30.40
2022-07-25T08:11:49.727Z,30.10
2022-07-25T08:14:37.468Z,30.50
2022-07-25T08:17:28.468Z,30.50
2022-07-25T08:20:38.396Z,30.40
2022-07-25T08:23:25.306Z,30.50
2022-07-25T08:26:14.176Z,30.60
2022-07-25T08:29:18.267Z,31.00
2022-07-25T08:32:07.039Z,31.00
2022-07-25T08:34:54.377Z,31.30
2022-07-25T08:37:41.808Z,31.10
2022-07-25T08:40:31.501Z,31.00
2022-07-25T08:43:19.996Z,31.10
2022-07-25T08:46:08.235Z,31.10
2022-07-25T08:48:56.076Z,31.40
2022-07-25T08:51:43.435Z,31.70
2022-07-25T08:54:32.499Z,32.10
2022-07-25T08:57:22.477Z,32.30
2022-07-25T09:00:11.886Z,31.60
2022-07-25T09:03:01.637Z,31.60
2022-07-25T09:05:49.030Z,31.90
2022-07-25T09:08:36.019Z,32.00
2022-07-25T09:11:35.173Z,31.80
2022-07-25T09:14:23.763Z,31.90
2022-07-25T09:17:22.153Z,31.60
2022-07-25T09:20:15.322Z,31.60
2022-07-25T09:23:05.575Z,31.80
2022-07-25T09:25:53.033Z,31.90
2022-07-25T09:28:44.891Z,31.90
2022-07-25T09:31:35.428Z,32.00
2022-07-25T09:34:36.260Z,32.50
2022-07-25T09:37:28.842Z,32.30
2022-07-25T09:40:16.597Z,32.50
2022-07-25T09:43:04.147Z,32.60
2022-07-25T09:45:52.305Z,33.20
2022-07-25T09:48:41.882Z,33.50
2022-07-25T09:51:30.246Z,33.50
2022-07-25T09:54:18.378Z,33.30
2022-07-25T09:57:06.078Z,33.20
2022-07-25T09:59:53.998Z,33.60
2022-07-25T10:02:48.414Z,33.80
2022-07-25T10:05:51.833Z,33.50
2022-07-25T10:08:40.719Z,34.10
2022-07-25T10:11:29.916Z,33.90
2022-07-25T10:14:17.352Z,34.00
2022-07-25T10:17:05.745Z,34.20
2022-07-25T10:19:58.532Z,34.20
2022-07-25T10:22:56.583Z,33.80
2022-07-25T10:25:48.948Z,33.80
2022-07-25T10:28:39.157Z,33.80
2022-07-25T10:31:29.165Z,33.70
2022-07-25T10:34:16.323Z,33.80
2022-07-25T10:37:15.020Z,33.90
2022-07-25T10:40:04.045Z,33.80
2022-07-25T10:42:51.122Z,34.00
2022-07-25T10:45:40.589Z,34.10
2022-07-25T10:48:29.695Z,33.90
2022-07-25T10:51:16.878Z,34.10
2022-07-25T10:54:14.517Z,34.20
2022-07-25T10:57:04.038Z,34.20
2022-07-25T10:59:51.672Z,34.00
2022-07-25T11:02:39.411Z,34.10
2022-07-25T11:05:26.930Z,34.00
2022-07-25T11:08:22.781Z,34.40
2022-07-25T11:11:10.927Z,34.40
2022-07-25T11:13:59.408Z,34.40
2022-07-25T11:16:48.790Z,33.90
2022-07-25T11:19:36.214Z,33.50
2022-07-25T11:22:23.788Z,33.70
2022-07-25T11:25:14.215Z,33.70
2022-07-25T11:28:03.549Z,33.60
2022-07-25T11:30:51.990Z,33.90
2022-07-25T11:33:40.033Z,33.90
2022-07-25T11:36:27.231Z,34.00
2022-07-25T11:39:18.751Z,34.20
2022-07-25T11:42:07.601Z,34.30
2022-07-25T11:44:54.623Z,34.20
2022-07-25T11:47:43.586Z,34.20
2022-07-25T11:50:32.226Z,34.10
2022-07-25T11:53:19.840Z,34.10
2022-07-25T11:56:40.785Z,34.20
2022-07-25T11:59:22.347Z,34.10
2022-07-25T12:02:09.883Z,34.20
2022-07-25T12:05:03.778Z,33.80
2022-07-25T12:07:54.025Z,33.50
2022-07-25T12:10:43.394Z,33.80
2022-07-25T12:13:31.888Z,33.80
2022-07-25T12:16:19.736Z,34.00
2022-07-25T12:19:11.117Z,34.00
2022-07-25T12:21:59.599Z,34.20
2022-07-25T12:24:46.742Z,34.30
2022-07-25T12:27:34.078Z,34.20
2022-07-25T12:30:21.412Z,34.30
2022-07-25T12:33:08.900Z,34.20
2022-07-25T12:35:56.268Z,34.10
2022-07-25T12:38:45.006Z,34.40
2022-07-25T12:41:32.418Z,34.30
2022-07-25T12:44:19.739Z,34.50
2022-07-25T12:47:07.571Z,34.50
2022-07-25T12:49:54.706Z,34.30
2022-07-25T12:52:42.804Z,34.30
2022-07-25T12:55:31.525Z,34.20
2022-07-25T12:58:18.894Z,34.40
2022-07-25T13:01:06.581Z,34.40
2022-07-25T13:03:54.019Z,34.30
2022-07-25T13:06:41.562Z,34.40
2022-07-25T13:09:29.262Z,34.60
2022-07-25T13:12:18.030Z,34.70
2022-07-25T13:15:05.926Z,34.60
2022-07-25T13:17:53.350Z,34.40
2022-07-25T13:20:41.260Z,34.40
2022-07-25T13:23:28.626Z,34.30
2022-07-25T13:26:15.808Z,34.20
2022-07-25T13:29:08.399Z,34.20
2022-07-25T13:31:57.108Z,34.10
2022-07-25T13:34:44.356Z,34.10
2022-07-25T13:37:32.676Z,33.90
2022-07-25T13:40:20.219Z,33.90
2022-07-25T13:43:07.460Z,34.00
2022-07-25T13:45:55.909Z,34.10
2022-07-25T13:48:42.907Z,34.10
2022-07-25T13:51:30.249Z,34.10
2022-07-25T13:54:17.672Z,34.10
2022-07-25T13:57:04.821Z,34.20
2022-07-25T13:59:51.923Z,34.40
2022-07-25T14:02:40.482Z,34.40
2022-07-25T14:05:27.464Z,34.40
2022-07-25T14:08:14.806Z,34.50
2022-07-25T14:11:02.278Z,34.30
2022-07-25T14:13:50.814Z,34.10
2022-07-25T14:16:37.998Z,34.10
2022-07-25T14:19:26.639Z,34.20
2022-07-25T14:22:14.367Z,34.30
2022-07-25T14:25:01.612Z,34.50
2022-07-25T14:27:48.858Z,34.70
2022-07-25T14:30:35.978Z,34.80
2022-07-25T14:33:23.583Z,34.90
2022-07-25T14:36:12.767Z,34.90
2022-07-25T14:39:00.025Z,34.80
2022-07-25T14:41:47.405Z,34.70
2022-07-25T14:44:34.858Z,34.50
2022-07-25T14:47:27.262Z,34.30
2022-07-25T14:50:14.465Z,34.20
2022-07-25T14:53:03.057Z,34.20
2022-07-25T14:55:50.521Z,34.10
2022-07-25T14:58:38.227Z,34.10
2022-07-25T15:01:25.767Z,34.10
2022-07-25T15:04:13.970Z,33.90
2022-07-25T15:07:01.398Z,33.90
2022-07-25T15:09:50.057Z,33.80
2022-07-25T15:12:37.156Z,33.80
2022-07-25T15:15:24.501Z,33.70
2022-07-25T15:18:14.031Z,33.70
2022-07-25T15:21:01.724Z,33.70
2022-07-25T15:23:49.031Z,33.70
2022-07-25T15:26:38.397Z,33.70
2022-07-25T15:29:25.603Z,33.70
2022-07-25T15:32:12.817Z,33.70
2022-07-25T15:35:00.299Z,33.70
2022-07-25T15:37:47.599Z,33.80
2022-07-25T15:40:34.979Z,33.70
2022-07-25T15:43:23.335Z,33.70
2022-07-25T15:46:13.140Z,33.70
2022-07-25T15:49:00.216Z,33.70
2022-07-25T15:51:47.567Z,33.70
2022-07-25T15:54:34.567Z,33.70
2022-07-25T15:57:21.913Z,33.80
2022-07-25T16:00:11.965Z,34.00
2022-07-25T16:02:59.322Z,34.10
2022-07-25T16:05:46.754Z,34.20
2022-07-25T16:08:35.812Z,34.10
2022-07-25T16:11:23.259Z,34.10
2022-07-25T16:14:11.080Z,34.00
2022-07-25T16:16:59.432Z,33.90
2022-07-25T16:19:46.658Z,33.80
2022-07-25T16:22:33.841Z,33.70
2022-07-25T16:25:21.394Z,33.60
2022-07-25T16:28:08.404Z,33.50
2022-07-25T16:30:55.771Z,33.40
2022-07-25T16:33:44.570Z,33.40
2022-07-25T16:36:31.573Z,33.40
2022-07-25T16:39:18.870Z,33.40
2022-07-25T16:42:06.465Z,33.40
2022-07-25T16:44:53.656Z,33.30
2022-07-25T16:47:42.721Z,33.20
2022-07-25T16:50:31.290Z,33.20
2022-07-25T16:53:18.847Z,33.20
2022-07-25T16:56:06.828Z,33.10
2022-07-25T16:58:54.331Z,33.10
2022-07-25T17:01:41.656Z,33.00
2022-07-25T17:04:28.961Z,32.70
2022-07-25T17:07:17.650Z,32.20
2022-07-25T17:10:05.346Z,31.30
2022-07-25T17:12:52.623Z,30.80
2022-07-25T17:16:01.265Z,30.40
2022-07-25T17:18:48.338Z,30.20
2022-07-25T17:21:35.598Z,29.90
2022-07-25T17:24:24.287Z,29.90
2022-07-25T17:27:12.863Z,29.50
2022-07-25T17:30:00.078Z,28.70
2022-07-25T17:32:47.187Z,27.70
2022-07-25T17:35:34.280Z,27.10
2022-07-25T17:38:25.974Z,26.40
2022-07-25T17:41:15.477Z,25.90
2022-07-25T17:44:02.914Z,25.70
2022-07-25T17:46:50.539Z,25.50
2022-07-25T17:49:37.631Z,25.20
2022-07-25T17:52:24.974Z,25.10
2022-07-25T17:55:13.504Z,25.00
2022-07-25T17:58:01.887Z,24.90
2022-07-25T18:00:49.514Z,24.90
2022-07-25T18:03:37.373Z,24.80
2022-07-25T18:06:29.569Z,24.50
2022-07-25T18:09:17.051Z,24.40
2022-07-25T18:12:04.139Z,24.30
2022-07-25T18:14:52.897Z,24.30
2022-07-25T18:17:41.954Z,24.30
2022-07-25T18:20:29.265Z,23.90
2022-07-25T18:23:16.579Z,23.90
2022-07-25T18:26:04.560Z,24.10
2022-07-25T18:28:51.736Z,24.40
2022-07-25T18:31:40.539Z,24.40
2022-07-25T18:34:27.496Z,24.40
2022-07-25T18:37:15.041Z,24.40
2022-07-25T18:40:02.119Z,24.40
2022-07-25T18:42:49.543Z,24.20
2022-07-25T18:45:37.398Z,24.10
2022-07-25T18:48:28.915Z,24.00
2022-07-25T18:51:16.284Z,23.80
2022-07-25T18:54:03.325Z,23.90
2022-07-25T18:56:50.438Z,24.00
2022-07-25T18:59:37.906Z,23.50
2022-07-25T19:02:26.218Z,23.50
2022-07-25T19:05:15.055Z,23.80
2022-07-25T19:08:03.369Z,23.90
2022-07-25T19:10:50.742Z,23.90
2022-07-25T19:13:49.483Z,23.90
2022-07-25T19:16:36.990Z,23.80
2022-07-25T19:19:24.233Z,23.80
2022-07-25T19:22:13.027Z,23.80
2022-07-25T19:25:05.561Z,23.80
2022-07-25T19:27:52.597Z,23.70
2022-07-25T19:30:40.097Z,23.60
2022-07-25T19:33:34.818Z,23.50
2022-07-25T19:36:23.339Z,23.50
2022-07-25T19:39:12.601Z,23.40
2022-07-25T19:41:59.846Z,23.30
2022-07-25T19:44:47.240Z,23.20
2022-07-25T19:47:34.669Z,23.20
2022-07-25T19:50:22.187Z,23.10
2022-07-25T19:53:09.791Z,22.90
2022-07-25T19:55:58.350Z,22.90
2022-07-25T19:58:46.059Z,23.00
2022-07-25T20:01:35.766Z,22.80
2022-07-25T20:04:23.575Z,22.60
2022-07-25T20:07:10.823Z,22.60
2022-07-25T20:09:58.137Z,23.00
2022-07-25T20:12:46.737Z,23.20
2022-07-25T20:15:34.407Z,23.30
2022-07-25T20:18:21.440Z,23.30
2022-07-25T20:21:08.949Z,23.30
2022-07-25T20:23:56.466Z,23.40
2022-07-25T20:26:43.964Z,23.30
2022-07-25T20:29:32.613Z,23.30
2022-07-25T20:32:19.903Z,23.30
2022-07-25T20:35:08.302Z,23.40
2022-07-25T20:37:55.347Z,23.40
2022-07-25T20:40:49.304Z,23.30
2022-07-25T20:43:37.925Z,23.20
2022-07-25T20:46:26.640Z,23.40
2022-07-25T20:49:14.357Z,23.40
2022-07-25T20:52:01.917Z,23.50
2022-07-25T20:54:49.191Z,23.50
2022-07-25T20:57:36.454Z,23.40
2022-07-25T21:00:27.290Z,23.40
2022-07-25T21:03:15.990Z,23.40
2022-07-25T21:06:03.278Z,23.20
2022-07-25T21:08:50.580Z,23.20
2022-07-25T21:11:38.025Z,23.10
2022-07-25T21:14:26.703Z,23.00
2022-07-25T21:17:13.883Z,22.90
2022-07-25T21:20:02.941Z,22.90
2022-07-25T21:22:50.661Z,22.80
2022-07-25T21:25:37.816Z,22.80
2022-07-25T21:28:26.038Z,22.80
2022-07-25T21:31:13.574Z,22.70
2022-07-25T21:34:01.339Z,22.80
2022-07-25T21:36:49.790Z,22.70
2022-07-25T21:39:37.324Z,22.70
2022-07-25T21:42:24.759Z,22.60
2022-07-25T21:45:13.381Z,22.60
2022-07-25T21:48:01.395Z,22.50
2022-07-25T21:50:49.363Z,22.30
2022-07-25T21:53:38.922Z,22.10
2022-07-25T21:56:26.283Z,21.90
2022-07-25T21:59:13.735Z,21.70
2022-07-25T22:02:01.049Z,21.70
2022-07-25T22:04:48.400Z,21.50
2022-07-25T22:07:35.747Z,21.40
2022-07-25T22:10:27.570Z,21.40
2022-07-25T22:13:14.963Z,21.20
2022-07-25T22:16:03.541Z,21.20
2022-07-25T22:18:50.931Z,21.00
2022-07-25T22:21:38.397Z,21.10
2022-07-25T22:24:25.710Z,20.90
2022-07-25T22:27:14.609Z,20.90
2022-07-25T22:30:01.795Z,20.90
2022-07-25T22:32:49.678Z,20.90
2022-07-25T22:35:38.619Z,20.80
2022-07-25T22:38:25.833Z,20.80
2022-07-25T22:41:13.118Z,20.80
2022-07-25T22:44:01.843Z,20.70
2022-07-25T22:46:49.096Z,20.70
2022-07-25T22:49:36.328Z,20.70
2022-07-25T22:52:23.391Z,20.60
2022-07-25T22:55:11.270Z,20.60
2022-07-25T22:57:58.605Z,20.70
2022-07-25T23:00:47.426Z,20.80
2022-07-25T23:03:34.767Z,20.70
2022-07-25T23:06:22.476Z,20.70
2022-07-25T23:09:10.411Z,20.70
2022-07-25T23:11:57.834Z,20.90
2022-07-25T23:14:45.759Z,20.70
2022-07-25T23:17:34.358Z,20.70
2022-07-25T23:20:21.680Z,20.60
2022-07-25T23:23:09.059Z,20.50
2022-07-25T23:25:56.453Z,20.50
2022-07-25T23:28:43.830Z,20.60
2022-07-25T23:31:31.198Z,20.50
2022-07-25T23:34:19.793Z,20.50
2022-07-25T23:37:07.229Z,20.50
2022-07-25T23:39:54.546Z,20.40
2022-07-25T23:42:42.054Z,20.40
2022-07-25T23:45:29.447Z,20.30
2022-07-25T23:48:18.799Z,20.30
2022-07-25T23:51:07.763Z,20.10
2022-07-25T23:53:55.724Z,20.20
2022-07-25T23:56:43.384Z,20.10
2022-07-25T23:59:30.461Z,20.10
